createdAt,value
2018-08-24T00:02:14.045Z,25.50
2018-08-24T00:04:42.034Z,25.50
2018-08-24T00:07:10.034Z,25.40
2018-08-24T00:09:37.958Z,25.40
2018-08-24T00:12:06.115Z,25.40
2018-08-24T00:14:34.103Z,25.40
2018-08-24T00:17:02.049Z,25.30
2018-08-24T00:19:30.048Z,25.20
2018-08-24T00:21:58.059Z,25.20
2018-08-24T00:24:26.027Z,25.10
2018-08-24T00:26:54.005Z,25.10
2018-08-24T00:29:21.989Z,25.10
2018-08-24T00:31:50.010Z,25.10
2018-08-24T00:34:18.005Z,25.10
2018-08-24T00:36:45.932Z,25.00
2018-08-24T00:39:17.322Z,25.00
2018-08-24T00:41:45.337Z,25.00
2018-08-24T00:44:13.363Z,25.00
2018-08-24T00:46:41.322Z,24.90
2018-08-24T00:49:09.316Z,24.90
2018-08-24T00:51:37.297Z,24.90
2018-08-24T00:54:05.269Z,24.90
2018-08-24T00:56:33.565Z,24.90
2018-08-24T00:59:01.531Z,24.90
2018-08-24T01:01:29.539Z,24.90
2018-08-24T01:03:57.539Z,24.90
2018-08-24T01:06:25.496Z,24.70
2018-08-24T01:08:53.459Z,24.50
2018-08-24T01:11:25.699Z,24.60
2018-08-24T01:13:53.929Z,24.60
2018-08-24T01:16:27.477Z,24.60
2018-08-24T01:18:55.443Z,24.60
2018-08-24T01:21:23.413Z,24.60
2018-08-24T01:23:51.644Z,24.60
2018-08-24T01:26:24.237Z,24.60
2018-08-24T01:28:52.531Z,24.50
2018-08-24T01:31:20.582Z,24.50
2018-08-24T01:33:48.966Z,24.30
2018-08-24T01:36:16.977Z,24.30
2018-08-24T01:38:44.941Z,24.30
2018-08-24T01:41:12.949Z,24.30
2018-08-24T01:43:40.907Z,24.30
2018-08-24T01:46:11.975Z,24.30
2018-08-24T01:48:40.785Z,24.30
2018-08-24T01:51:08.764Z,24.30
2018-08-24T01:53:36.732Z,24.30
2018-08-24T01:56:04.735Z,24.30
2018-08-24T01:58:32.712Z,24.30
2018-08-24T02:01:00.669Z,24.20
2018-08-24T02:03:28.644Z,24.20
2018-08-24T02:06:02.713Z,24.20
2018-08-24T02:08:30.676Z,24.20
2018-08-24T02:10:58.629Z,24.20
2018-08-24T02:13:32.150Z,24.10
2018-08-24T02:16:00.135Z,24.10
2018-08-24T02:18:33.504Z,24.10
2018-08-24T02:21:07.006Z,24.10
2018-08-24T02:23:35.235Z,24.00
2018-08-24T02:26:03.164Z,24.00
2018-08-24T02:28:31.129Z,23.90
2018-08-24T02:31:01.119Z,24.00
2018-08-24T02:33:33.709Z,24.00
2018-08-24T02:36:01.651Z,23.90
2018-08-24T02:38:29.646Z,23.90
2018-08-24T02:40:57.628Z,23.80
2018-08-24T02:43:25.771Z,23.90
2018-08-24T02:45:53.785Z,23.90
2018-08-24T02:48:21.748Z,23.90
2018-08-24T02:50:49.999Z,23.90
2018-08-24T02:53:17.981Z,23.90
2018-08-24T02:55:45.932Z,23.90
2018-08-24T02:58:13.919Z,23.90
2018-08-24T03:00:41.885Z,23.90
2018-08-24T03:03:09.957Z,23.90
2018-08-24T03:05:38.096Z,23.90
2018-08-24T03:08:05.984Z,23.90
2018-08-24T03:10:33.937Z,23.90
2018-08-24T03:13:01.962Z,23.90
2018-08-24T03:15:29.937Z,23.90
2018-08-24T03:17:57.886Z,23.90
2018-08-24T03:20:26.281Z,23.90
2018-08-24T03:22:54.832Z,23.80
2018-08-24T03:25:22.799Z,23.90
2018-08-24T03:27:50.814Z,23.80
2018-08-24T03:30:18.891Z,23.80
2018-08-24T03:32:46.940Z,23.80
2018-08-24T03:35:14.905Z,23.80
2018-08-24T03:37:42.880Z,23.80
2018-08-24T03:40:10.868Z,23.80
2018-08-24T03:42:38.839Z,23.80
2018-08-24T03:45:06.837Z,23.80
2018-08-24T03:47:34.849Z,23.70
2018-08-24T03:50:02.838Z,23.70
2018-08-24T03:52:30.831Z,23.70
2018-08-24T03:54:58.821Z,23.60
2018-08-24T03:57:33.606Z,23.60
2018-08-24T04:00:01.568Z,23.50
2018-08-24T04:02:29.535Z,23.60
2018-08-24T04:04:57.527Z,23.60
2018-08-24T04:07:25.535Z,23.60
2018-08-24T04:09:53.523Z,23.60
2018-08-24T04:12:24.896Z,23.50
2018-08-24T04:14:52.906Z,23.50
2018-08-24T04:17:26.334Z,23.60
2018-08-24T04:19:54.316Z,23.50
2018-08-24T04:22:22.277Z,23.50
2018-08-24T04:24:50.264Z,23.50
2018-08-24T04:27:18.228Z,23.50
2018-08-24T04:29:46.204Z,23.40
2018-08-24T04:32:14.191Z,23.30
2018-08-24T04:34:43.248Z,23.30
2018-08-24T04:37:11.218Z,23.30
2018-08-24T04:39:39.192Z,23.30
2018-08-24T04:42:07.181Z,23.30
2018-08-24T04:44:35.165Z,23.30
2018-08-24T04:47:03.839Z,23.20
2018-08-24T04:49:31.826Z,23.20
2018-08-24T04:51:59.821Z,23.20
2018-08-24T04:54:27.813Z,23.10
2018-08-24T04:56:55.809Z,23.00
2018-08-24T04:59:23.917Z,23.10
2018-08-24T05:01:51.744Z,23.10
2018-08-24T05:04:19.792Z,23.10
2018-08-24T05:06:47.797Z,23.10
2018-08-24T05:09:15.772Z,23.00
2018-08-24T05:11:43.760Z,23.00
2018-08-24T05:14:11.773Z,22.90
2018-08-24T05:16:39.755Z,22.90
2018-08-24T05:19:07.726Z,22.80
2018-08-24T05:21:35.701Z,22.80
2018-08-24T05:24:03.772Z,22.80
2018-08-24T05:26:31.766Z,22.80
2018-08-24T05:28:59.762Z,22.80
2018-08-24T05:31:27.727Z,22.90
2018-08-24T05:33:55.686Z,22.90
2018-08-24T05:36:23.715Z,22.80
2018-08-24T05:38:51.678Z,22.70
2018-08-24T05:41:19.687Z,22.70
2018-08-24T05:43:51.379Z,22.80
2018-08-24T05:46:19.370Z,22.70
2018-08-24T05:48:47.486Z,22.70
2018-08-24T05:51:15.469Z,22.60
2018-08-24T05:53:43.440Z,22.60
2018-08-24T05:56:11.424Z,22.60
2018-08-24T05:58:39.435Z,22.70
2018-08-24T06:01:07.463Z,22.80
2018-08-24T06:03:35.428Z,22.80
2018-08-24T06:06:04.222Z,22.70
2018-08-24T06:08:32.789Z,22.70
2018-08-24T06:11:01.891Z,22.70
2018-08-24T06:13:29.920Z,22.80
2018-08-24T06:15:57.967Z,22.80
2018-08-24T06:18:26.024Z,22.80
2018-08-24T06:20:54.010Z,22.80
2018-08-24T06:23:22.000Z,22.80
2018-08-24T06:25:50.018Z,22.70
2018-08-24T06:28:18.014Z,22.70
2018-08-24T06:30:46.035Z,22.70
2018-08-24T06:33:14.021Z,22.80
2018-08-24T06:35:41.977Z,22.80
2018-08-24T06:38:09.964Z,22.80
2018-08-24T06:40:37.954Z,22.80
2018-08-24T06:43:05.963Z,22.80
2018-08-24T06:45:34.108Z,22.80
2018-08-24T06:48:02.152Z,22.90
2018-08-24T06:50:30.127Z,23.00
2018-08-24T06:52:58.809Z,23.00
2018-08-24T06:55:26.905Z,23.00
2018-08-24T06:57:55.098Z,23.00
2018-08-24T07:00:28.755Z,23.00
2018-08-24T07:02:56.869Z,22.90
2018-08-24T07:05:25.077Z,22.80
2018-08-24T07:07:53.300Z,22.80
2018-08-24T07:10:21.415Z,22.70
2018-08-24T07:12:49.452Z,22.80
2018-08-24T07:15:17.421Z,22.90
2018-08-24T07:17:50.966Z,22.90
2018-08-24T07:20:18.959Z,23.00
2018-08-24T07:22:47.024Z,23.00
2018-08-24T07:25:15.060Z,23.00
2018-08-24T07:27:42.991Z,22.90
2018-08-24T07:30:10.964Z,22.90
2018-08-24T07:32:39.108Z,22.80
2018-08-24T07:35:07.120Z,22.70
2018-08-24T07:37:35.084Z,22.80
2018-08-24T07:40:13.969Z,22.80
2018-08-24T07:42:41.947Z,22.90
2018-08-24T07:45:09.942Z,23.00
2018-08-24T07:47:38.019Z,23.00
2018-08-24T07:50:06.049Z,23.10
2018-08-24T07:52:34.020Z,23.10
2018-08-24T07:55:02.018Z,23.10
2018-08-24T07:57:30.021Z,23.20
2018-08-24T07:59:58.003Z,23.20
2018-08-24T08:02:31.427Z,23.30
2018-08-24T08:04:59.424Z,23.40
2018-08-24T08:07:27.414Z,23.40
2018-08-24T08:09:55.419Z,23.40
2018-08-24T08:12:23.430Z,23.40
2018-08-24T08:14:57.348Z,23.50
2018-08-24T08:17:25.339Z,23.50
2018-08-24T08:19:53.318Z,23.50
2018-08-24T08:22:21.316Z,23.60
2018-08-24T08:24:49.487Z,23.50
2018-08-24T08:27:17.387Z,23.50
2018-08-24T08:29:50.969Z,23.50
2018-08-24T08:32:18.960Z,23.40
2018-08-24T08:34:53.097Z,23.40
2018-08-24T08:37:22.222Z,23.40
2018-08-24T08:39:53.059Z,23.40
2018-08-24T08:42:21.907Z,23.40
2018-08-24T08:44:56.650Z,23.50
2018-08-24T08:47:24.637Z,23.60
2018-08-24T08:49:52.636Z,23.50
2018-08-24T08:52:20.653Z,23.50
2018-08-24T08:54:48.740Z,23.40
2018-08-24T08:57:16.736Z,23.40
2018-08-24T08:59:44.886Z,23.50
2018-08-24T09:02:16.316Z,23.50
2018-08-24T09:04:44.304Z,23.60
2018-08-24T09:07:12.337Z,23.60
2018-08-24T09:09:40.335Z,23.60
2018-08-24T09:12:09.738Z,23.70
2018-08-24T09:14:37.779Z,23.80
2018-08-24T09:17:11.101Z,23.90
2018-08-24T09:20:46.458Z,23.90
2018-08-24T09:23:19.877Z,24.00
2018-08-24T09:25:53.524Z,24.00
2018-08-24T09:28:27.064Z,24.00
2018-08-24T09:30:58.925Z,24.00
2018-08-24T09:33:26.901Z,24.00
2018-08-24T09:35:54.896Z,24.00
2018-08-24T09:38:22.923Z,24.10
2018-08-24T09:40:56.463Z,24.10
2018-08-24T09:43:29.900Z,24.10
2018-08-24T09:45:57.876Z,24.10
2018-08-24T09:48:26.751Z,24.00
2018-08-24T09:51:00.374Z,24.10
2018-08-24T09:53:33.780Z,24.10
2018-08-24T09:56:01.759Z,24.10
2018-08-24T09:58:30.112Z,24.10
2018-08-24T10:01:03.984Z,24.20
2018-08-24T10:03:37.597Z,24.10
2018-08-24T10:06:11.389Z,24.30
2018-08-24T10:08:44.908Z,24.30
2018-08-24T10:11:13.337Z,24.30
2018-08-24T10:13:41.321Z,24.30
2018-08-24T10:16:09.275Z,24.20
2018-08-24T10:18:37.244Z,24.20
2018-08-24T10:21:05.503Z,24.20
2018-08-24T10:23:33.510Z,24.20
2018-08-24T10:26:01.846Z,24.20
2018-08-24T10:28:30.040Z,24.20
2018-08-24T10:30:58.048Z,24.20
2018-08-24T10:33:25.994Z,24.30
2018-08-24T10:35:54.360Z,24.20
2018-08-24T10:38:22.447Z,24.20
2018-08-24T10:40:50.507Z,24.20
2018-08-24T10:43:18.508Z,24.20
2018-08-24T10:45:46.484Z,24.20
2018-08-24T10:48:14.546Z,24.20
2018-08-24T10:50:42.537Z,24.10
2018-08-24T10:53:10.511Z,24.00
2018-08-24T10:55:38.492Z,24.00
2018-08-24T10:58:06.449Z,24.00
2018-08-24T11:00:34.445Z,24.00
2018-08-24T11:03:02.422Z,24.00
2018-08-24T11:05:30.498Z,24.00
2018-08-24T11:07:58.378Z,24.00
2018-08-24T11:10:26.349Z,24.00
2018-08-24T11:12:54.724Z,23.90
2018-08-24T11:15:22.731Z,23.80
2018-08-24T11:17:56.498Z,23.70
2018-08-24T11:20:24.470Z,23.60
2018-08-24T11:22:52.486Z,23.60
2018-08-24T11:25:20.473Z,23.60
2018-08-24T11:27:48.427Z,23.60
2018-08-24T11:30:16.510Z,23.50
2018-08-24T11:32:44.479Z,23.60
2018-08-24T11:35:12.469Z,23.60
2018-08-24T11:37:40.520Z,23.70
2018-08-24T11:40:08.563Z,23.70
2018-08-24T11:42:36.542Z,23.60
2018-08-24T11:45:04.621Z,23.50
2018-08-24T11:47:32.621Z,23.50
2018-08-24T11:50:00.610Z,23.50
2018-08-24T11:52:28.575Z,23.40
2018-08-24T11:54:56.552Z,23.30
2018-08-24T11:57:24.523Z,23.30
2018-08-24T11:59:52.562Z,23.40
2018-08-24T12:02:20.771Z,23.40
2018-08-24T12:04:48.725Z,23.60
2018-08-24T12:07:16.764Z,23.70
2018-08-24T12:09:44.733Z,23.80
2018-08-24T12:12:12.820Z,23.80
2018-08-24T12:14:40.710Z,23.70
2018-08-24T12:17:10.470Z,23.80
2018-08-24T12:19:38.463Z,23.80
2018-08-24T12:22:06.450Z,23.60
2018-08-24T12:24:34.440Z,23.60
2018-08-24T12:27:02.465Z,23.60
2018-08-24T12:29:30.402Z,23.60
2018-08-24T12:31:58.353Z,23.50
2018-08-24T12:34:26.349Z,23.40
2018-08-24T12:36:54.337Z,23.40
2018-08-24T12:39:22.451Z,23.50
2018-08-24T12:41:50.403Z,23.40
2018-08-24T12:44:18.385Z,23.40
2018-08-24T12:46:46.364Z,23.40
2018-08-24T12:49:14.403Z,23.30
2018-08-24T12:51:42.378Z,23.30
2018-08-24T12:54:10.363Z,23.40
2018-08-24T12:56:38.454Z,23.40
2018-08-24T12:59:06.410Z,23.40
2018-08-24T13:01:34.412Z,23.40
2018-08-24T13:04:02.801Z,23.40
2018-08-24T13:06:30.768Z,23.50
2018-08-24T13:08:58.764Z,23.50
2018-08-24T13:11:26.756Z,23.50
2018-08-24T13:13:54.743Z,23.50
2018-08-24T13:16:22.715Z,23.50
2018-08-24T13:18:50.675Z,23.50
2018-08-24T13:21:22.276Z,23.60
2018-08-24T13:23:50.255Z,23.60
2018-08-24T13:26:18.203Z,23.60
2018-08-24T13:28:46.168Z,23.60
2018-08-24T13:31:14.145Z,23.50
2018-08-24T13:33:42.168Z,23.50
2018-08-24T13:36:10.132Z,23.50
2018-08-24T13:38:38.131Z,23.50
2018-08-24T13:41:06.095Z,23.60
2018-08-24T13:43:34.075Z,23.60
2018-08-24T13:46:02.365Z,23.70
2018-08-24T13:48:30.318Z,23.80
2018-08-24T13:50:58.335Z,23.70
2018-08-24T13:53:26.338Z,23.70
2018-08-24T13:55:54.321Z,23.70
2018-08-24T13:58:22.290Z,23.70
2018-08-24T14:00:50.260Z,23.70
2018-08-24T14:03:18.227Z,23.80
2018-08-24T14:05:46.207Z,23.80
2018-08-24T14:08:14.191Z,23.80
2018-08-24T14:10:42.163Z,23.80
2018-08-24T14:13:10.592Z,23.80
2018-08-24T14:15:38.483Z,23.70
2018-08-24T14:18:06.436Z,23.70
2018-08-24T14:20:34.452Z,23.70
2018-08-24T14:23:02.419Z,23.70
2018-08-24T14:25:30.467Z,23.70
2018-08-24T14:27:58.664Z,23.70
2018-08-24T14:30:26.710Z,23.70
2018-08-24T14:32:54.683Z,23.80
2018-08-24T14:35:22.657Z,23.90
2018-08-24T14:37:50.644Z,23.90
2018-08-24T14:40:18.616Z,23.90
2018-08-24T14:42:46.572Z,23.80
2018-08-24T14:45:14.543Z,23.80
2018-08-24T14:47:42.536Z,23.80
2018-08-24T14:50:10.515Z,23.90
2018-08-24T14:52:38.507Z,23.90
2018-08-24T14:55:06.467Z,23.90
2018-08-24T14:57:34.439Z,23.90
2018-08-24T15:00:02.450Z,23.90
2018-08-24T15:02:30.404Z,23.90
2018-08-24T15:04:58.385Z,23.90
2018-08-24T15:07:26.339Z,23.90
2018-08-24T15:09:54.659Z,23.90
2018-08-24T15:12:22.620Z,23.90
2018-08-24T15:14:50.601Z,24.00
2018-08-24T15:17:18.808Z,24.10
2018-08-24T15:19:47.040Z,24.10
2018-08-24T15:22:14.998Z,24.10
2018-08-24T15:24:42.968Z,24.10
2018-08-24T15:27:10.948Z,24.10
2018-08-24T15:29:38.997Z,24.10
2018-08-24T15:32:06.938Z,24.10
2018-08-24T15:34:34.914Z,24.10
2018-08-24T15:37:02.874Z,24.00
2018-08-24T15:39:30.864Z,23.90
2018-08-24T15:41:58.858Z,23.80
2018-08-24T15:44:27.150Z,23.70
2018-08-24T15:46:55.114Z,23.70
2018-08-24T15:49:23.115Z,23.60
2018-08-24T15:51:51.092Z,23.60
2018-08-24T15:54:19.077Z,23.60
2018-08-24T15:56:47.109Z,23.60
2018-08-24T15:59:15.058Z,23.60
2018-08-24T16:01:43.072Z,23.70
2018-08-24T16:04:11.072Z,23.70
2018-08-24T16:06:39.015Z,23.80
2018-08-24T16:09:12.079Z,23.80
2018-08-24T16:11:40.230Z,23.80
2018-08-24T16:14:08.525Z,23.70
2018-08-24T16:16:36.585Z,23.70
2018-08-24T16:19:04.478Z,23.60
2018-08-24T16:21:32.449Z,23.60
2018-08-24T16:24:00.563Z,23.60
2018-08-24T16:26:28.525Z,23.60
2018-08-24T16:28:56.479Z,23.70
2018-08-24T16:31:24.468Z,23.60
2018-08-24T16:33:52.993Z,23.60
2018-08-24T16:36:20.960Z,23.60
2018-08-24T16:38:48.994Z,23.60
2018-08-24T16:41:16.980Z,23.60
2018-08-24T16:43:44.932Z,23.60
2018-08-24T16:46:12.913Z,23.50
2018-08-24T16:48:40.879Z,23.50
2018-08-24T16:51:09.046Z,23.40
2018-08-24T16:53:37.019Z,23.40
2018-08-24T16:56:05.001Z,23.40
2018-08-24T16:58:32.991Z,23.50
2018-08-24T17:01:01.000Z,23.50
2018-08-24T17:03:29.145Z,23.50
2018-08-24T17:05:57.349Z,23.50
2018-08-24T17:08:25.510Z,23.60
2018-08-24T17:10:53.596Z,23.50
2018-08-24T17:13:21.589Z,23.50
2018-08-24T17:15:49.568Z,23.40
2018-08-24T17:18:17.523Z,23.40
2018-08-24T17:20:45.499Z,23.30
2018-08-24T17:23:13.486Z,23.20
2018-08-24T17:25:41.543Z,23.30
2018-08-24T17:28:09.654Z,23.20
2018-08-24T17:30:37.618Z,23.20
2018-08-24T17:33:05.926Z,23.20
2018-08-24T17:35:33.957Z,23.20
2018-08-24T17:38:02.062Z,23.10
2018-08-24T17:40:30.036Z,23.10
2018-08-24T17:42:57.998Z,23.10
2018-08-24T17:45:25.948Z,23.00
2018-08-24T17:47:53.928Z,22.90
2018-08-24T17:50:21.869Z,22.90
2018-08-24T17:52:50.324Z,22.80
2018-08-24T17:55:18.280Z,22.80
2018-08-24T17:57:46.255Z,22.70
2018-08-24T18:00:14.204Z,22.80
2018-08-24T18:02:42.147Z,22.80
2018-08-24T18:05:10.454Z,22.80
2018-08-24T18:07:38.439Z,22.70
2018-08-24T18:10:06.382Z,22.70
2018-08-24T18:12:34.648Z,22.70
2018-08-24T18:15:02.845Z,22.70
2018-08-24T18:17:30.601Z,22.80
2018-08-24T18:19:58.588Z,22.80
2018-08-24T18:22:26.575Z,22.80
2018-08-24T18:24:54.553Z,22.70
2018-08-24T18:27:22.529Z,22.60
2018-08-24T18:29:51.052Z,22.60
2018-08-24T18:32:19.004Z,22.60
2018-08-24T18:34:46.987Z,22.60
2018-08-24T18:37:14.996Z,22.70
2018-08-24T18:39:42.939Z,22.60
2018-08-24T18:42:10.943Z,22.60
2018-08-24T18:44:38.918Z,22.60
2018-08-24T18:47:06.884Z,22.60
2018-08-24T18:49:34.806Z,22.60
2018-08-24T18:52:02.796Z,22.50
2018-08-24T18:54:30.760Z,22.60
2018-08-24T18:59:32.245Z,22.60
2018-08-24T19:02:00.261Z,22.50
2018-08-24T19:04:28.249Z,22.50
2018-08-24T19:06:56.240Z,22.50
2018-08-24T19:09:24.198Z,22.40
2018-08-24T19:11:57.505Z,22.50
2018-08-24T19:14:25.469Z,22.50
2018-08-24T19:16:53.418Z,22.40
2018-08-24T19:19:26.938Z,22.40
2018-08-24T19:21:59.007Z,22.30
2018-08-24T19:24:26.985Z,22.30
2018-08-24T19:26:54.952Z,22.20
2018-08-24T19:29:28.319Z,22.20
2018-08-24T19:31:56.368Z,22.20
2018-08-24T19:34:24.262Z,22.30
2018-08-24T19:36:52.240Z,22.30
2018-08-24T19:39:20.205Z,22.40
2018-08-24T19:41:53.650Z,22.40
2018-08-24T19:44:21.605Z,22.40
2018-08-24T19:46:49.539Z,22.40
2018-08-24T19:49:19.615Z,22.30
2018-08-24T19:51:47.545Z,22.30
2018-08-24T19:54:16.164Z,22.30
2018-08-24T19:56:44.130Z,22.20
2018-08-24T19:59:13.608Z,22.20
2018-08-24T20:01:42.464Z,22.20
2018-08-24T20:04:11.546Z,22.30
2018-08-24T20:06:45.110Z,22.20
2018-08-24T20:09:18.638Z,22.30
2018-08-24T20:11:48.039Z,22.30
2018-08-24T20:14:16.681Z,22.30
2018-08-24T20:16:50.053Z,22.30
2018-08-24T20:19:18.051Z,22.20
2018-08-24T20:21:46.005Z,22.20
2018-08-24T20:24:14.029Z,22.20
2018-08-24T20:26:42.264Z,22.20
2018-08-24T20:29:10.218Z,22.20
2018-08-24T20:31:38.168Z,22.20
2018-08-24T20:34:06.160Z,22.20
2018-08-24T20:36:34.182Z,22.20
2018-08-24T20:39:02.102Z,22.20
2018-08-24T20:41:30.069Z,22.20
2018-08-24T20:43:58.026Z,22.20
2018-08-24T20:46:25.975Z,22.20
2018-08-24T20:48:54.068Z,22.10
2018-08-24T20:51:22.016Z,22.10
2018-08-24T20:53:49.981Z,22.00
2018-08-24T20:56:17.969Z,22.00
2018-08-24T20:58:45.922Z,22.10
2018-08-24T21:01:13.874Z,22.00
2018-08-24T21:03:41.840Z,22.00
2018-08-24T21:06:09.842Z,21.80
2018-08-24T21:08:37.784Z,21.80
2018-08-24T21:11:05.797Z,21.70
2018-08-24T21:13:34.139Z,21.70
2018-08-24T21:16:02.191Z,21.80
2018-08-24T21:18:30.192Z,21.80
2018-08-24T21:20:58.181Z,21.80
2018-08-24T21:23:26.178Z,21.70
2018-08-24T21:25:54.116Z,21.70
2018-08-24T21:28:22.062Z,21.70
2018-08-24T21:30:50.045Z,21.70
2018-08-24T21:33:18.014Z,21.70
2018-08-24T21:35:46.111Z,21.60
2018-08-24T21:38:14.127Z,21.70
2018-08-24T21:40:42.139Z,21.70
2018-08-24T21:43:10.115Z,21.80
2018-08-24T21:45:38.196Z,21.80
2018-08-24T21:48:06.166Z,21.70
2018-08-24T21:50:34.127Z,21.60
2018-08-24T21:53:02.244Z,21.60
2018-08-24T21:55:30.192Z,21.60
2018-08-24T21:57:58.220Z,21.50
2018-08-24T22:00:26.115Z,21.30
2018-08-24T22:02:54.071Z,21.40
2018-08-24T22:05:22.040Z,21.40
2018-08-24T22:07:50.007Z,21.50
2018-08-24T22:10:17.984Z,21.50
2018-08-24T22:12:46.150Z,21.50
2018-08-24T22:15:14.263Z,21.40
2018-08-24T22:17:42.649Z,21.30
2018-08-24T22:20:10.746Z,21.30
2018-08-24T22:22:38.705Z,21.20
2018-08-24T22:25:06.700Z,21.10
2018-08-24T22:27:34.702Z,21.10
2018-08-24T22:30:02.729Z,21.10
2018-08-24T22:32:30.633Z,21.30
2018-08-24T22:34:58.608Z,21.40
2018-08-24T22:37:26.600Z,21.30
2018-08-24T22:39:54.562Z,21.40
2018-08-24T22:42:22.513Z,21.30
2018-08-24T22:44:50.491Z,21.20
2018-08-24T22:47:18.463Z,21.10
2018-08-24T22:49:46.448Z,21.00
2018-08-24T22:52:14.401Z,21.00
2018-08-24T22:54:42.354Z,20.90
2018-08-24T22:57:10.319Z,21.00
2018-08-24T22:59:38.301Z,21.10
2018-08-24T23:02:06.297Z,21.10
2018-08-24T23:04:34.322Z,21.10
2018-08-24T23:07:02.409Z,21.10
2018-08-24T23:09:30.348Z,21.20
2018-08-24T23:11:58.318Z,21.10
2018-08-24T23:14:26.286Z,21.20
2018-08-24T23:16:54.230Z,21.20
2018-08-24T23:19:22.404Z,21.10
2018-08-24T23:21:50.304Z,20.90
2018-08-24T23:24:18.268Z,20.80
2018-08-24T23:26:46.242Z,20.90
2018-08-24T23:29:14.199Z,21.00
2018-08-24T23:31:42.174Z,21.10
2018-08-24T23:34:10.458Z,21.00
2018-08-24T23:36:38.368Z,20.90
2018-08-24T23:39:08.098Z,20.90
2018-08-24T23:41:36.063Z,20.80
2018-08-24T23:44:04.024Z,20.70
2018-08-24T23:46:32.058Z,20.80
2018-08-24T23:49:00.284Z,20.80
2018-08-24T23:51:28.295Z,20.80
2018-08-24T23:53:56.287Z,20.80
2018-08-24T23:56:24.237Z,20.80
2018-08-24T23:58:52.243Z,20.80
